Terminal Aerodrome Forecast
Issued by NWS Sterling, VA

Current Version | Previous Version | Text Only | Print | Product List | Glossary Off
Versions: 1 2 3 4 5 6 7 8 9 10 11 12 13 14 15 16 17 18 19 20 21 22

000
FTUS41 KLWX 192000 AAA
TAFDCA
TAF AMD
KDCA 192058Z 1921/2018 32010G18KT P6SM FEW045
     FM192300 31009KT P6SM FEW250
     FM200400 VRB04KT P6SM SKC
     FM201400 19008KT P6SM SCT250=

USA.gov is the U.S. government's official web portal to all federal, state and local government web resources and services.